SBI2515 UHWW-UHMM
Flight info
| Callsign | SBI2515 |
|---|---|
| Flight time | N/A |
| Altitude | 33000 |
| Route | DOLMA B356 TD/K0835F310 W307 FI/K0837F330 N222 NA L160 ABAGO/K0741F250 A218 BANOT |
| Aircraft | A21N/M-SDE2E3FGHIRWXY/LB1 |
Departure
| Time | 2026-04-12 09:07 |
|---|---|
| Airport | Vladivostok International Airport (UHWW) |
Arrival
| Time | N/A |
|---|---|
| Airport | Sokol Airport (UHMM) |
| Time | Latitude | Longitude | Altitude | Speed | Heading |
|---|---|---|---|---|---|
| 2026-04-12 08:52 | 43.39718 | 132.16482 | 38 ft | 0 kts | 151° |
| 2026-04-12 08:57 | 43.39732 | 132.16471 | 37 ft | 2 kts | 148° |
| 2026-04-12 08:58 | 43.39746 | 132.16459 | 37 ft | 2 kts | 145° |
| 2026-04-12 08:58 | 43.39759 | 132.16445 | 36 ft | 2 kts | 141° |
| 2026-04-12 08:58 | 43.39772 | 132.16430 | 37 ft | 2 kts | 133° |
| 2026-04-12 08:58 | 43.39782 | 132.16412 | 37 ft | 2 kts | 118° |
| 2026-04-12 08:59 | 43.39787 | 132.16390 | 38 ft | 2 kts | 92° |
| 2026-04-12 08:59 | 43.39784 | 132.16368 | 36 ft | 2 kts | 65° |
| 2026-04-12 08:59 | 43.39781 | 132.16361 | 34 ft | 0 kts | 60° |
| 2026-04-12 08:59 | 43.39781 | 132.16360 | 34 ft | 0 kts | 60° |
| 2026-04-12 09:00 | 43.39781 | 132.16359 | 34 ft | 0 kts | 60° |
| 2026-04-12 09:03 | 43.39782 | 132.16362 | 38 ft | 1 kts | 61° |
| 2026-04-12 09:03 | 43.39794 | 132.16393 | 37 ft | 6 kts | 62° |
| 2026-04-12 09:03 | 43.39819 | 132.16458 | 36 ft | 9 kts | 61° |
| 2026-04-12 09:03 | 43.39851 | 132.16536 | 38 ft | 10 kts | 60° |
| 2026-04-12 09:04 | 43.39887 | 132.16624 | 38 ft | 11 kts | 62° |
| 2026-04-12 09:04 | 43.39926 | 132.16723 | 38 ft | 12 kts | 60° |
| 2026-04-12 09:04 | 43.39971 | 132.16830 | 36 ft | 13 kts | 60° |
| 2026-04-12 09:04 | 43.40018 | 132.16947 | 38 ft | 14 kts | 61° |
| 2026-04-12 09:05 | 43.40051 | 132.17032 | 37 ft | 6 kts | 62° |
| 2026-04-12 09:05 | 43.40079 | 132.17082 | 38 ft | 7 kts | 33° |
| 2026-04-12 09:05 | 43.40131 | 132.17076 | 38 ft | 9 kts | 333° |
| 2026-04-12 09:05 | 43.40187 | 132.17034 | 38 ft | 10 kts | 331° |
| 2026-04-12 09:06 | 43.40251 | 132.16985 | 38 ft | 11 kts | 331° |
| 2026-04-12 09:06 | 43.40322 | 132.16931 | 37 ft | 12 kts | 331° |
| 2026-04-12 09:06 | 43.40399 | 132.16873 | 38 ft | 13 kts | 330° |
| 2026-04-12 09:06 | 43.40420 | 132.16765 | 37 ft | 14 kts | 245° |
| 2026-04-12 09:07 | 43.40332 | 132.16535 | 38 ft | 57 kts | 241° |
| 2026-04-12 09:07 | 43.40027 | 132.15790 | 37 ft | 122 kts | 241° |
| 2026-04-12 09:07 | 43.39510 | 132.14520 | 94 ft | 173 kts | 238° |
| 2026-04-12 09:07 | 43.38920 | 132.13067 | 801 ft | 175 kts | 237° |
| 2026-04-12 09:08 | 43.38328 | 132.11619 | 1636 ft | 169 kts | 236° |
| 2026-04-12 09:08 | 43.37754 | 132.10257 | 2383 ft | 161 kts | 229° |
| 2026-04-12 09:08 | 43.36874 | 132.09325 | 2810 ft | 166 kts | 196° |
| 2026-04-12 09:08 | 43.35723 | 132.09503 | 3175 ft | 182 kts | 153° |
| 2026-04-12 09:09 | 43.34825 | 132.10852 | 3589 ft | 206 kts | 123° |
| 2026-04-12 09:09 | 43.34469 | 132.12882 | 3934 ft | 234 kts | 95° |
| 2026-04-12 09:09 | 43.34795 | 132.15224 | 4093 ft | 266 kts | 67° |
| 2026-04-12 09:09 | 43.35855 | 132.17350 | 4704 ft | 276 kts | 44° |
| 2026-04-12 09:10 | 43.37431 | 132.18934 | 5100 ft | 287 kts | 21° |
| 2026-04-12 09:10 | 43.39297 | 132.19584 | 6136 ft | 269 kts | 353° |
| 2026-04-12 09:10 | 43.41127 | 132.19263 | 6917 ft | 269 kts | 351° |
| 2026-04-12 09:10 | 43.42400 | 132.19445 | 7202 ft | 289 kts | 11° |
| 2026-04-12 09:11 | 43.44198 | 132.20899 | 7690 ft | 313 kts | 34° |
| 2026-04-12 09:11 | 43.46301 | 132.23663 | 8761 ft | 313 kts | 39° |
| 2026-04-12 09:11 | 43.47841 | 132.25779 | 9630 ft | 310 kts | 34° |
| 2026-04-12 09:11 | 43.48922 | 132.27072 | 10051 ft | 312 kts | 31° |
| 2026-04-12 09:12 | 43.50649 | 132.29007 | 10396 ft | 328 kts | 31° |
| 2026-04-12 09:12 | 43.52476 | 132.31040 | 10667 ft | 346 kts | 31° |
| 2026-04-12 09:12 | 43.54390 | 132.33192 | 10919 ft | 364 kts | 32° |
| 2026-04-12 09:12 | 43.56391 | 132.35466 | 11165 ft | 381 kts | 32° |
| 2026-04-12 09:13 | 43.58476 | 132.37852 | 11490 ft | 394 kts | 33° |
| 2026-04-12 09:13 | 43.60576 | 132.40266 | 12077 ft | 398 kts | 33° |
| 2026-04-12 09:13 | 43.62711 | 132.42715 | 12746 ft | 401 kts | 32° |
| 2026-04-12 09:13 | 43.64872 | 132.45170 | 13400 ft | 403 kts | 32° |
| 2026-04-12 09:14 | 43.67059 | 132.47634 | 13979 ft | 407 kts | 32° |
| 2026-04-12 09:14 | 43.69242 | 132.50109 | 14515 ft | 411 kts | 32° |
| 2026-04-12 09:14 | 43.71457 | 132.52635 | 15031 ft | 415 kts | 32° |
| 2026-04-12 09:14 | 43.73638 | 132.55133 | 15526 ft | 418 kts | 32° |
| 2026-04-12 09:15 | 43.75927 | 132.57759 | 16059 ft | 422 kts | 32° |
| 2026-04-12 09:15 | 43.78193 | 132.60365 | 16567 ft | 426 kts | 32° |
| 2026-04-12 09:15 | 43.80487 | 132.63011 | 17069 ft | 431 kts | 33° |
| 2026-04-12 09:15 | 43.82737 | 132.65750 | 17613 ft | 436 kts | 34° |
| 2026-04-12 09:16 | 43.85005 | 132.68562 | 18126 ft | 440 kts | 34° |
| 2026-04-12 09:16 | 43.87300 | 132.71416 | 18566 ft | 444 kts | 34° |
| 2026-04-12 09:16 | 43.89618 | 132.74272 | 19019 ft | 446 kts | 33° |
| 2026-04-12 09:16 | 43.91957 | 132.77136 | 19460 ft | 450 kts | 33° |
| 2026-04-12 09:17 | 43.94310 | 132.80025 | 19880 ft | 453 kts | 33° |
| 2026-04-12 09:17 | 43.96681 | 132.82950 | 20333 ft | 456 kts | 33° |
| 2026-04-12 09:17 | 43.99030 | 132.85857 | 20764 ft | 459 kts | 33° |
| 2026-04-12 09:17 | 44.01431 | 132.88836 | 21190 ft | 463 kts | 33° |
| 2026-04-12 09:18 | 44.03845 | 132.91833 | 21616 ft | 466 kts | 33° |
| 2026-04-12 09:18 | 44.06274 | 132.94845 | 22026 ft | 469 kts | 33° |
| 2026-04-12 09:18 | 44.08721 | 132.97888 | 22456 ft | 472 kts | 33° |
| 2026-04-12 09:18 | 44.11142 | 133.00920 | 22854 ft | 476 kts | 33° |
| 2026-04-12 09:19 | 44.13596 | 133.04049 | 23259 ft | 479 kts | 33° |
| 2026-04-12 09:19 | 44.16077 | 133.07177 | 23628 ft | 482 kts | 33° |
| 2026-04-12 09:19 | 44.18571 | 133.10325 | 23949 ft | 484 kts | 33° |
| 2026-04-12 09:20 | 44.23844 | 133.16068 | 24617 ft | 480 kts | 25° |
| 2026-04-12 09:20 | 44.26566 | 133.18799 | 24942 ft | 483 kts | 26° |
| 2026-04-12 09:20 | 44.31991 | 133.24336 | 25612 ft | 488 kts | 26° |
| 2026-04-12 09:21 | 44.34732 | 133.27162 | 25950 ft | 490 kts | 26° |
| 2026-04-12 09:21 | 44.37492 | 133.30014 | 26289 ft | 492 kts | 26° |
| 2026-04-12 09:21 | 44.40250 | 133.32877 | 26611 ft | 495 kts | 26° |
| 2026-04-12 09:21 | 44.42971 | 133.35761 | 26907 ft | 497 kts | 27° |
| 2026-04-12 09:22 | 44.45730 | 133.38691 | 27267 ft | 497 kts | 27° |
| 2026-04-12 09:22 | 44.48485 | 133.41592 | 27691 ft | 495 kts | 26° |
| 2026-04-12 09:22 | 44.51260 | 133.44476 | 28102 ft | 494 kts | 26° |
| 2026-04-12 09:22 | 44.54033 | 133.47339 | 28489 ft | 493 kts | 25° |
| 2026-04-12 09:23 | 44.56771 | 133.50167 | 28873 ft | 492 kts | 25° |
| 2026-04-12 09:23 | 44.59529 | 133.53016 | 29258 ft | 491 kts | 25° |
| 2026-04-12 09:23 | 44.62280 | 133.55854 | 29651 ft | 490 kts | 25° |
| 2026-04-12 09:23 | 44.65027 | 133.58699 | 30004 ft | 490 kts | 25° |
| 2026-04-12 09:24 | 44.67761 | 133.61550 | 30306 ft | 490 kts | 26° |
| 2026-04-12 09:24 | 44.70488 | 133.64409 | 30618 ft | 489 kts | 26° |
| 2026-04-12 09:24 | 44.73208 | 133.67265 | 30913 ft | 488 kts | 26° |
| 2026-04-12 09:24 | 44.75933 | 133.70127 | 31185 ft | 487 kts | 27° |
| 2026-04-12 09:25 | 44.78647 | 133.72984 | 31455 ft | 487 kts | 27° |
| 2026-04-12 09:25 | 44.81333 | 133.75822 | 31725 ft | 486 kts | 27° |
| 2026-04-12 09:25 | 44.84032 | 133.78677 | 31999 ft | 485 kts | 27° |
| 2026-04-12 09:25 | 44.86744 | 133.81542 | 32270 ft | 484 kts | 28° |
| 2026-04-12 09:26 | 44.89442 | 133.84397 | 32512 ft | 484 kts | 28° |
| 2026-04-12 09:26 | 44.92145 | 133.87224 | 32742 ft | 482 kts | 27° |
| 2026-04-12 09:26 | 44.94845 | 133.89914 | 32899 ft | 481 kts | 26° |
| 2026-04-12 09:27 | 45.00325 | 133.95361 | 32898 ft | 480 kts | 26° |
| 2026-04-12 09:27 | 45.05782 | 134.00803 | 32885 ft | 480 kts | 27° |
| 2026-04-12 09:28 | 45.11208 | 134.06237 | 32875 ft | 480 kts | 27° |
| 2026-04-12 09:28 | 45.16668 | 134.11707 | 32879 ft | 480 kts | 27° |
| 2026-04-12 09:29 | 45.22130 | 134.17190 | 32871 ft | 480 kts | 27° |
| 2026-04-12 09:29 | 45.27589 | 134.22689 | 32874 ft | 481 kts | 27° |
| 2026-04-12 09:30 | 45.33007 | 134.28164 | 32868 ft | 481 kts | 27° |
| 2026-04-12 09:30 | 45.38454 | 134.33681 | 32869 ft | 481 kts | 27° |
| 2026-04-12 09:31 | 45.43913 | 134.39221 | 32863 ft | 481 kts | 27° |
| 2026-04-12 09:31 | 45.49369 | 134.44769 | 32859 ft | 481 kts | 27° |
| 2026-04-12 09:32 | 45.54792 | 134.50296 | 32862 ft | 481 kts | 27° |
| 2026-04-12 09:32 | 45.60240 | 134.55865 | 32850 ft | 481 kts | 27° |
| 2026-04-12 09:33 | 45.65646 | 134.61398 | 32853 ft | 481 kts | 27° |
| 2026-04-12 09:33 | 45.71098 | 134.66995 | 32844 ft | 481 kts | 27° |
| 2026-04-12 09:34 | 45.76543 | 134.72607 | 32843 ft | 481 kts | 27° |
| 2026-04-12 09:34 | 45.81939 | 134.78177 | 32842 ft | 481 kts | 27° |
| 2026-04-12 09:35 | 45.87377 | 134.83806 | 32839 ft | 481 kts | 27° |
| 2026-04-12 09:35 | 45.93135 | 134.88125 | 32838 ft | 460 kts | 10° |
| 2026-04-12 09:36 | 45.99232 | 134.90938 | 32837 ft | 459 kts | 9° |
| 2026-04-12 09:36 | 46.05282 | 134.93735 | 32835 ft | 459 kts | 9° |
| 2026-04-12 09:37 | 46.11375 | 134.96599 | 32830 ft | 460 kts | 9° |
| 2026-04-12 09:37 | 46.17458 | 134.99471 | 32829 ft | 460 kts | 9° |
| 2026-04-12 09:38 | 46.23554 | 135.02355 | 32829 ft | 460 kts | 9° |
| 2026-04-12 09:38 | 46.29595 | 135.05220 | 32825 ft | 460 kts | 9° |
| 2026-04-12 09:39 | 46.35696 | 135.08117 | 32828 ft | 460 kts | 9° |
| 2026-04-12 09:39 | 46.41760 | 135.11004 | 32828 ft | 460 kts | 10° |
| 2026-04-12 09:40 | 46.47841 | 135.13907 | 32825 ft | 460 kts | 10° |
| 2026-04-12 09:40 | 46.53923 | 135.16820 | 32828 ft | 460 kts | 10° |
| 2026-04-12 09:41 | 46.57955 | 135.18755 | 32824 ft | 460 kts | 10° |
| 2026-04-12 09:41 | 46.65977 | 135.22611 | 32822 ft | 460 kts | 10° |
| 2026-04-12 09:42 | 46.72065 | 135.25546 | 32830 ft | 460 kts | 10° |
| 2026-04-12 09:42 | 46.78149 | 135.28480 | 32826 ft | 460 kts | 10° |
| 2026-04-12 09:43 | 46.90302 | 135.34143 | 32827 ft | 458 kts | 9° |
| 2026-04-12 09:44 | 46.96372 | 135.36919 | 32826 ft | 458 kts | 9° |
| 2026-04-12 09:44 | 47.02469 | 135.39718 | 32826 ft | 458 kts | 9° |
| 2026-04-12 09:45 | 47.08565 | 135.42522 | 32830 ft | 458 kts | 9° |
| 2026-04-12 09:45 | 47.14642 | 135.45323 | 32825 ft | 458 kts | 10° |
| 2026-04-12 09:46 | 47.16659 | 135.46253 | 32829 ft | 458 kts | 10° |
| 2026-04-12 09:46 | 47.27145 | 135.51109 | 32826 ft | 457 kts | 10° |
| 2026-04-12 09:47 | 47.32739 | 135.53703 | 32822 ft | 457 kts | 10° |
| 2026-04-12 09:47 | 47.38785 | 135.56512 | 32834 ft | 457 kts | 10° |
| 2026-04-12 09:48 | 47.44836 | 135.59334 | 32831 ft | 457 kts | 10° |
| 2026-04-12 09:48 | 47.50912 | 135.62173 | 32835 ft | 457 kts | 10° |
| 2026-04-12 09:49 | 47.57000 | 135.65004 | 32834 ft | 457 kts | 10° |
| 2026-04-12 09:49 | 47.63027 | 135.67837 | 32837 ft | 457 kts | 11° |
| 2026-04-12 09:50 | 47.69092 | 135.70704 | 32835 ft | 457 kts | 11° |
| 2026-04-12 09:50 | 47.75169 | 135.73565 | 32840 ft | 457 kts | 11° |
| 2026-04-12 09:51 | 47.81233 | 135.76431 | 32836 ft | 457 kts | 11° |
| 2026-04-12 09:51 | 47.87260 | 135.79287 | 32834 ft | 457 kts | 11° |
| 2026-04-12 09:52 | 47.93325 | 135.82166 | 32830 ft | 457 kts | 11° |
| 2026-04-12 09:52 | 47.99400 | 135.85058 | 32839 ft | 457 kts | 11° |
| 2026-04-12 09:53 | 48.05428 | 135.87935 | 32842 ft | 457 kts | 12° |
| 2026-04-12 09:53 | 48.11457 | 135.90821 | 32844 ft | 456 kts | 12° |
| 2026-04-12 09:54 | 48.17505 | 135.93722 | 32841 ft | 456 kts | 12° |
| 2026-04-12 09:54 | 48.23566 | 135.96638 | 32839 ft | 456 kts | 12° |
| 2026-04-12 09:55 | 48.29575 | 135.99533 | 32837 ft | 456 kts | 12° |
| 2026-04-12 09:55 | 48.35628 | 136.02460 | 32840 ft | 456 kts | 12° |
| 2026-04-12 09:56 | 48.41673 | 136.05390 | 32841 ft | 456 kts | 12° |
| 2026-04-12 09:56 | 48.47684 | 136.08298 | 32843 ft | 456 kts | 12° |
| 2026-04-12 09:57 | 48.53733 | 136.11248 | 32846 ft | 456 kts | 12° |
| 2026-04-12 09:57 | 48.59748 | 136.14192 | 32841 ft | 455 kts | 13° |
| 2026-04-12 09:58 | 48.65805 | 136.17157 | 32845 ft | 455 kts | 13° |
| 2026-04-12 09:58 | 48.71804 | 136.20102 | 32845 ft | 455 kts | 13° |
| 2026-04-12 09:59 | 48.77797 | 136.23050 | 32842 ft | 455 kts | 13° |
| 2026-04-12 09:59 | 48.83824 | 136.26023 | 32848 ft | 455 kts | 13° |
| 2026-04-12 10:00 | 48.89851 | 136.29018 | 32849 ft | 455 kts | 13° |
| 2026-04-12 10:00 | 48.95824 | 136.32029 | 32846 ft | 454 kts | 13° |
| 2026-04-12 10:01 | 49.01838 | 136.35066 | 32852 ft | 454 kts | 13° |
| 2026-04-12 10:01 | 49.07849 | 136.38108 | 32855 ft | 454 kts | 13° |
| 2026-04-12 10:02 | 49.13818 | 136.41134 | 32850 ft | 455 kts | 13° |
| 2026-04-12 10:02 | 49.19825 | 136.44190 | 32852 ft | 455 kts | 14° |
| 2026-04-12 10:03 | 49.25841 | 136.47253 | 32847 ft | 454 kts | 14° |
| 2026-04-12 10:03 | 49.31805 | 136.50300 | 32852 ft | 454 kts | 14° |
| 2026-04-12 10:04 | 49.37799 | 136.53375 | 32855 ft | 454 kts | 14° |
| 2026-04-12 10:04 | 49.43776 | 136.56564 | 32852 ft | 457 kts | 19° |
| 2026-04-12 10:05 | 49.49244 | 136.61598 | 32856 ft | 462 kts | 30° |
| 2026-04-12 10:05 | 49.54586 | 136.67131 | 32854 ft | 462 kts | 30° |
| 2026-04-12 10:06 | 49.59915 | 136.72605 | 32860 ft | 461 kts | 30° |
| 2026-04-12 10:06 | 49.65266 | 136.78103 | 32863 ft | 461 kts | 30° |
| 2026-04-12 10:07 | 49.70605 | 136.83599 | 32862 ft | 460 kts | 30° |
| 2026-04-12 10:07 | 49.75899 | 136.89065 | 32861 ft | 460 kts | 30° |
| 2026-04-12 10:08 | 49.81221 | 136.94591 | 32861 ft | 459 kts | 31° |
| 2026-04-12 10:08 | 49.86497 | 137.00099 | 32861 ft | 459 kts | 30° |
| 2026-04-12 10:09 | 49.91797 | 137.05628 | 32860 ft | 458 kts | 31° |
| 2026-04-12 10:09 | 49.97104 | 137.11171 | 32864 ft | 458 kts | 31° |
| 2026-04-12 10:10 | 50.02366 | 137.16635 | 32860 ft | 457 kts | 31° |
| 2026-04-12 10:10 | 50.07653 | 137.22160 | 32859 ft | 457 kts | 31° |
| 2026-04-12 10:11 | 50.12039 | 137.26798 | 32862 ft | 457 kts | 32° |
| 2026-04-12 10:11 | 50.17280 | 137.32415 | 32861 ft | 457 kts | 32° |
| 2026-04-12 10:12 | 50.22504 | 137.38016 | 32860 ft | 457 kts | 32° |
| 2026-04-12 10:12 | 50.27755 | 137.43662 | 32861 ft | 457 kts | 32° |
| 2026-04-12 10:13 | 50.33004 | 137.49315 | 32858 ft | 457 kts | 32° |
| 2026-04-12 10:13 | 50.38211 | 137.54970 | 32856 ft | 457 kts | 34° |
| 2026-04-12 10:14 | 50.43283 | 137.61020 | 32857 ft | 458 kts | 35° |
| 2026-04-12 10:14 | 50.48314 | 137.67092 | 32859 ft | 458 kts | 36° |
| 2026-04-12 10:15 | 50.53368 | 137.73209 | 32857 ft | 458 kts | 36° |
| 2026-04-12 10:15 | 50.58380 | 137.79336 | 32852 ft | 458 kts | 36° |
| 2026-04-12 10:16 | 50.63431 | 137.85501 | 32852 ft | 458 kts | 36° |
| 2026-04-12 10:16 | 50.68449 | 137.91607 | 32851 ft | 458 kts | 36° |
| 2026-04-12 10:17 | 50.73486 | 137.97788 | 32853 ft | 458 kts | 36° |
| 2026-04-12 10:17 | 50.78505 | 138.04009 | 32852 ft | 458 kts | 37° |
| 2026-04-12 10:18 | 50.83499 | 138.10189 | 32853 ft | 458 kts | 36° |
| 2026-04-12 10:18 | 50.88547 | 138.16343 | 32857 ft | 457 kts | 36° |
| 2026-04-12 10:19 | 50.93702 | 138.22270 | 32858 ft | 456 kts | 31° |
| 2026-04-12 10:19 | 50.99004 | 138.27705 | 32860 ft | 456 kts | 31° |
| 2026-04-12 10:20 | 51.04330 | 138.33223 | 32860 ft | 456 kts | 31° |
| 2026-04-12 10:20 | 51.09626 | 138.38696 | 32861 ft | 456 kts | 31° |
| 2026-04-12 10:21 | 51.14949 | 138.44218 | 32860 ft | 456 kts | 31° |
| 2026-04-12 10:21 | 51.20264 | 138.49758 | 32861 ft | 456 kts | 32° |
| 2026-04-12 10:22 | 51.25582 | 138.55320 | 32866 ft | 456 kts | 32° |
| 2026-04-12 10:22 | 51.30856 | 138.60840 | 32866 ft | 455 kts | 32° |
| 2026-04-12 10:23 | 51.36150 | 138.66449 | 32869 ft | 455 kts | 32° |
| 2026-04-12 10:23 | 51.41442 | 138.72009 | 32864 ft | 455 kts | 32° |
| 2026-04-12 10:24 | 51.46708 | 138.77537 | 32868 ft | 454 kts | 32° |
| 2026-04-12 10:24 | 51.51997 | 138.83134 | 32867 ft | 454 kts | 32° |
| 2026-04-12 10:25 | 51.57234 | 138.88726 | 32871 ft | 453 kts | 32° |
| 2026-04-12 10:25 | 51.62497 | 138.94337 | 32868 ft | 453 kts | 33° |
| 2026-04-12 10:26 | 51.67739 | 138.99983 | 32867 ft | 453 kts | 33° |
| 2026-04-12 10:26 | 51.72962 | 139.05574 | 32866 ft | 452 kts | 33° |
| 2026-04-12 10:27 | 51.78209 | 139.11193 | 32862 ft | 452 kts | 33° |
| 2026-04-12 10:27 | 51.83440 | 139.16860 | 32863 ft | 451 kts | 33° |
| 2026-04-12 10:28 | 51.88670 | 139.22495 | 32860 ft | 451 kts | 33° |
| 2026-04-12 10:28 | 51.93862 | 139.28080 | 32857 ft | 450 kts | 33° |
| 2026-04-12 10:29 | 51.99076 | 139.33737 | 32856 ft | 450 kts | 33° |
| 2026-04-12 10:29 | 52.04253 | 139.39382 | 32851 ft | 449 kts | 34° |
| 2026-04-12 10:30 | 52.09423 | 139.45034 | 32853 ft | 449 kts | 34° |
| 2026-04-12 10:30 | 52.14601 | 139.50715 | 32850 ft | 448 kts | 34° |
| 2026-04-12 10:31 | 52.19747 | 139.56368 | 32847 ft | 448 kts | 34° |
| 2026-04-12 10:31 | 52.24918 | 139.62073 | 32840 ft | 448 kts | 34° |
| 2026-04-12 10:32 | 52.30068 | 139.67790 | 32837 ft | 447 kts | 34° |
| 2026-04-12 10:32 | 52.35188 | 139.73470 | 32839 ft | 447 kts | 34° |
| 2026-04-12 10:33 | 52.40332 | 139.79183 | 32840 ft | 446 kts | 34° |
| 2026-04-12 10:33 | 52.45470 | 139.84919 | 32838 ft | 446 kts | 34° |
| 2026-04-12 10:34 | 52.50604 | 139.90647 | 32836 ft | 446 kts | 34° |
| 2026-04-12 10:34 | 52.55701 | 139.96373 | 32837 ft | 446 kts | 35° |
| 2026-04-12 10:35 | 52.60837 | 140.02151 | 32833 ft | 446 kts | 35° |
| 2026-04-12 10:35 | 52.65895 | 140.08072 | 32833 ft | 446 kts | 37° |
| 2026-04-12 10:36 | 52.70855 | 140.14099 | 32835 ft | 446 kts | 37° |
| 2026-04-12 10:36 | 52.75845 | 140.20176 | 32833 ft | 445 kts | 37° |
| 2026-04-12 10:37 | 52.80803 | 140.26238 | 32835 ft | 445 kts | 37° |
| 2026-04-12 10:37 | 52.85795 | 140.32362 | 32830 ft | 445 kts | 37° |
| 2026-04-12 10:38 | 52.90776 | 140.38493 | 32832 ft | 445 kts | 37° |
| 2026-04-12 10:38 | 52.95712 | 140.44574 | 32829 ft | 445 kts | 37° |
| 2026-04-12 10:39 | 53.00694 | 140.50747 | 32827 ft | 446 kts | 38° |
| 2026-04-12 10:39 | 53.05640 | 140.56866 | 32827 ft | 446 kts | 37° |
| 2026-04-12 10:40 | 53.10615 | 140.63052 | 32827 ft | 446 kts | 38° |
| 2026-04-12 10:40 | 53.15590 | 140.69147 | 32819 ft | 446 kts | 34° |
| 2026-04-12 10:41 | 53.20882 | 140.74619 | 32823 ft | 447 kts | 32° |
| 2026-04-12 10:41 | 53.26183 | 140.80065 | 32819 ft | 446 kts | 32° |
| 2026-04-12 10:42 | 53.31468 | 140.85516 | 32820 ft | 446 kts | 33° |
| 2026-04-12 10:42 | 53.36730 | 140.90970 | 32818 ft | 446 kts | 33° |
| 2026-04-12 10:43 | 53.44618 | 140.99166 | 32894 ft | 446 kts | 33° |
| 2026-04-12 10:43 | 53.49836 | 141.04610 | 32856 ft | 440 kts | 31° |
| 2026-04-12 10:44 | 53.55079 | 141.10094 | 32822 ft | 444 kts | 31° |
| 2026-04-12 10:44 | 53.60329 | 141.15601 | 32814 ft | 445 kts | 31° |
| 2026-04-12 10:45 | 53.65550 | 141.21101 | 32811 ft | 445 kts | 32° |
| 2026-04-12 10:45 | 53.70797 | 141.26656 | 32812 ft | 445 kts | 31° |
| 2026-04-12 10:46 | 53.76012 | 141.32177 | 32811 ft | 445 kts | 32° |
| 2026-04-12 10:46 | 53.81262 | 141.37740 | 32810 ft | 444 kts | 32° |
| 2026-04-12 10:47 | 53.86510 | 141.43350 | 32808 ft | 445 kts | 32° |
| 2026-04-12 10:47 | 53.91714 | 141.48922 | 32808 ft | 444 kts | 32° |
| 2026-04-12 10:48 | 53.96958 | 141.54513 | 32804 ft | 444 kts | 32° |
| 2026-04-12 10:48 | 54.02161 | 141.60097 | 32803 ft | 444 kts | 32° |
| 2026-04-12 10:49 | 54.07391 | 141.65733 | 32799 ft | 444 kts | 32° |
| 2026-04-12 10:49 | 54.12613 | 141.71380 | 32802 ft | 445 kts | 32° |
| 2026-04-12 10:50 | 54.17806 | 141.77020 | 32797 ft | 444 kts | 32° |
| 2026-04-12 10:50 | 54.23022 | 141.82690 | 32797 ft | 444 kts | 33° |
| 2026-04-12 10:51 | 54.28237 | 141.88380 | 32798 ft | 444 kts | 33° |
| 2026-04-12 10:51 | 54.33435 | 141.94075 | 32800 ft | 444 kts | 33° |
| 2026-04-12 10:52 | 54.38642 | 141.99817 | 32796 ft | 444 kts | 33° |
| 2026-04-12 10:52 | 54.43850 | 142.05548 | 32798 ft | 444 kts | 33° |
| 2026-04-12 10:53 | 54.49055 | 142.11290 | 32798 ft | 443 kts | 33° |
| 2026-04-12 10:53 | 54.54222 | 142.16997 | 32795 ft | 443 kts | 33° |
| 2026-04-12 10:54 | 54.59387 | 142.22739 | 32801 ft | 444 kts | 33° |
| 2026-04-12 10:54 | 54.64575 | 142.28524 | 32801 ft | 443 kts | 33° |
| 2026-04-12 10:55 | 54.69729 | 142.34293 | 32801 ft | 443 kts | 33° |
| 2026-04-12 10:55 | 54.74918 | 142.40106 | 32802 ft | 443 kts | 33° |
| 2026-04-12 10:56 | 54.80097 | 142.45934 | 32808 ft | 442 kts | 34° |
| 2026-04-12 10:56 | 54.85228 | 142.51727 | 32806 ft | 442 kts | 34° |
| 2026-04-12 10:57 | 54.90397 | 142.57581 | 32805 ft | 442 kts | 34° |
| 2026-04-12 10:57 | 54.95531 | 142.63416 | 32806 ft | 442 kts | 34° |
| 2026-04-12 10:58 | 55.00678 | 142.69307 | 32807 ft | 441 kts | 34° |
| 2026-04-12 10:58 | 55.05808 | 142.75159 | 32805 ft | 441 kts | 34° |
| 2026-04-12 10:59 | 55.10934 | 142.81037 | 32807 ft | 441 kts | 34° |
| 2026-04-12 10:59 | 55.16042 | 142.86919 | 32806 ft | 441 kts | 34° |
| 2026-04-12 11:00 | 55.21186 | 142.92833 | 32806 ft | 441 kts | 34° |
| 2026-04-12 11:00 | 55.26306 | 142.98814 | 32810 ft | 441 kts | 35° |
| 2026-04-12 11:01 | 55.31364 | 143.04809 | 32812 ft | 441 kts | 35° |
| 2026-04-12 11:01 | 55.36451 | 143.10851 | 32815 ft | 440 kts | 36° |
| 2026-04-12 11:02 | 55.41557 | 143.16938 | 32902 ft | 446 kts | 35° |
| 2026-04-12 11:02 | 55.44103 | 143.19958 | 33048 ft | 447 kts | 35° |
| 2026-04-12 11:02 | 55.46689 | 143.23029 | 33259 ft | 447 kts | 36° |
| 2026-04-12 11:03 | 55.49273 | 143.26106 | 33527 ft | 447 kts | 36° |
| 2026-04-12 11:03 | 55.50979 | 143.28141 | 33682 ft | 446 kts | 36° |
| 2026-04-12 11:03 | 55.53547 | 143.31234 | 33876 ft | 447 kts | 36° |
| 2026-04-12 11:03 | 55.56123 | 143.34338 | 33998 ft | 448 kts | 36° |
| 2026-04-12 11:04 | 55.58714 | 143.37429 | 34111 ft | 450 kts | 35° |
| 2026-04-12 11:04 | 55.61321 | 143.40506 | 34240 ft | 451 kts | 35° |
| 2026-04-12 11:04 | 55.63900 | 143.43576 | 34376 ft | 451 kts | 36° |
| 2026-04-12 11:04 | 55.66507 | 143.46704 | 34498 ft | 452 kts | 36° |
| 2026-04-12 11:05 | 55.69117 | 143.49851 | 34616 ft | 453 kts | 36° |
| 2026-04-12 11:05 | 55.71737 | 143.53019 | 34723 ft | 454 kts | 36° |
| 2026-04-12 11:05 | 55.74352 | 143.56189 | 34832 ft | 456 kts | 36° |
| 2026-04-12 11:05 | 55.76976 | 143.59369 | 34854 ft | 456 kts | 36° |
| 2026-04-12 11:06 | 55.82200 | 143.65747 | 34842 ft | 455 kts | 36° |
| 2026-04-12 11:06 | 55.87388 | 143.72091 | 34837 ft | 455 kts | 36° |
| 2026-04-12 11:07 | 55.92605 | 143.78535 | 34838 ft | 455 kts | 36° |
| 2026-04-12 11:07 | 55.97821 | 143.84987 | 34839 ft | 455 kts | 36° |
| 2026-04-12 11:08 | 56.03012 | 143.91395 | 34850 ft | 455 kts | 36° |
| 2026-04-12 11:08 | 56.08230 | 143.97846 | 34846 ft | 456 kts | 36° |
| 2026-04-12 11:09 | 56.13436 | 144.04332 | 34854 ft | 456 kts | 37° |
| 2026-04-12 11:09 | 56.18661 | 144.10810 | 34855 ft | 456 kts | 36° |
| 2026-04-12 11:10 | 56.23839 | 144.17288 | 34856 ft | 456 kts | 37° |
| 2026-04-12 11:10 | 56.29051 | 144.23833 | 34857 ft | 456 kts | 37° |
| 2026-04-12 11:11 | 56.34233 | 144.30448 | 34866 ft | 456 kts | 37° |
| 2026-04-12 11:11 | 56.39365 | 144.37107 | 34867 ft | 457 kts | 37° |
| 2026-04-12 11:12 | 56.44541 | 144.43806 | 34871 ft | 456 kts | 38° |
| 2026-04-12 11:12 | 56.49710 | 144.50519 | 34876 ft | 456 kts | 38° |
| 2026-04-12 11:13 | 56.54871 | 144.57244 | 34879 ft | 456 kts | 38° |
| 2026-04-12 11:13 | 56.59995 | 144.63943 | 34879 ft | 457 kts | 38° |
| 2026-04-12 11:14 | 56.65165 | 144.70682 | 34887 ft | 458 kts | 38° |
| 2026-04-12 11:14 | 56.70315 | 144.77448 | 34892 ft | 457 kts | 38° |
| 2026-04-12 11:15 | 56.75454 | 144.84259 | 34891 ft | 457 kts | 38° |
| 2026-04-12 11:15 | 56.80585 | 144.91027 | 34899 ft | 457 kts | 38° |
| 2026-04-12 11:16 | 56.85739 | 144.97845 | 34898 ft | 456 kts | 38° |
| 2026-04-12 11:16 | 56.90856 | 145.04720 | 34904 ft | 456 kts | 38° |
| 2026-04-12 11:17 | 56.95959 | 145.11571 | 34907 ft | 456 kts | 39° |
| 2026-04-12 11:17 | 57.01090 | 145.18446 | 34909 ft | 456 kts | 38° |
| 2026-04-12 11:18 | 57.06214 | 145.25349 | 34914 ft | 456 kts | 39° |
| 2026-04-12 11:18 | 57.11331 | 145.32288 | 34922 ft | 456 kts | 39° |
| 2026-04-12 11:19 | 57.16413 | 145.39193 | 34925 ft | 456 kts | 39° |
| 2026-04-12 11:19 | 57.21521 | 145.46164 | 34929 ft | 456 kts | 39° |
| 2026-04-12 11:20 | 57.26618 | 145.53179 | 34926 ft | 456 kts | 39° |
| 2026-04-12 11:20 | 57.31691 | 145.60127 | 34934 ft | 456 kts | 39° |
| 2026-04-12 11:21 | 57.36798 | 145.67159 | 34938 ft | 456 kts | 39° |
| 2026-04-12 11:21 | 57.41860 | 145.74169 | 34940 ft | 456 kts | 39° |
| 2026-04-12 11:22 | 57.46950 | 145.81245 | 34944 ft | 456 kts | 39° |
| 2026-04-12 11:22 | 57.52029 | 145.88343 | 34949 ft | 456 kts | 39° |
| 2026-04-12 11:23 | 57.57082 | 145.95445 | 34951 ft | 457 kts | 40° |
| 2026-04-12 11:23 | 57.62170 | 146.02584 | 34953 ft | 456 kts | 39° |
| 2026-04-12 11:24 | 57.67258 | 146.09710 | 34961 ft | 457 kts | 40° |
| 2026-04-12 11:24 | 57.72310 | 146.16862 | 34964 ft | 456 kts | 40° |
| 2026-04-12 11:25 | 57.77379 | 146.24048 | 34965 ft | 457 kts | 40° |